sensor_id;sensor_type;location;lat;lon;timestamp;temperature;humidity
25214;DHT22;13160;51.834;4.706;2022-08-03T00:00:33;22.00;99.90
25214;DHT22;13160;51.834;4.706;2022-08-03T00:03:01;21.90;99.90
25214;DHT22;13160;51.834;4.706;2022-08-03T00:05:29;21.90;99.90
25214;DHT22;13160;51.834;4.706;2022-08-03T00:08:00;21.90;99.90
25214;DHT22;13160;51.834;4.706;2022-08-03T00:10:30;21.90;99.90
25214;DHT22;13160;51.834;4.706;2022-08-03T00:12:58;21.90;99.90
25214;DHT22;13160;51.834;4.706;2022-08-03T00:15:26;21.90;99.90
25214;DHT22;13160;51.834;4.706;2022-08-03T00:17:54;21.80;99.90
25214;DHT22;13160;51.834;4.706;2022-08-03T00:20:23;21.80;99.90
25214;DHT22;13160;51.834;4.706;2022-08-03T00:22:51;21.80;99.90
25214;DHT22;13160;51.834;4.706;2022-08-03T00:25:21;21.80;99.90
25214;DHT22;13160;51.834;4.706;2022-08-03T00:27:49;21.80;99.90
25214;DHT22;13160;51.834;4.706;2022-08-03T00:30:18;21.80;99.90
25214;DHT22;13160;51.834;4.706;2022-08-03T00:32:47;21.80;99.90
25214;DHT22;13160;51.834;4.706;2022-08-03T00:35:15;21.80;99.90
25214;DHT22;13160;51.834;4.706;2022-08-03T00:38:02;21.80;99.90
25214;DHT22;13160;51.834;4.706;2022-08-03T00:40:33;21.80;99.90
25214;DHT22;13160;51.834;4.706;2022-08-03T00:43:03;21.80;99.90
25214;DHT22;13160;51.834;4.706;2022-08-03T00:45:35;21.80;99.90
25214;DHT22;13160;51.834;4.706;2022-08-03T00:48:06;21.70;99.90
25214;DHT22;13160;51.834;4.706;2022-08-03T00:50:57;21.70;99.90
25214;DHT22;13160;51.834;4.706;2022-08-03T00:53:26;21.70;99.90
25214;DHT22;13160;51.834;4.706;2022-08-03T00:55:56;21.70;99.90
25214;DHT22;13160;51.834;4.706;2022-08-03T00:58:24;21.70;99.90
25214;DHT22;13160;51.834;4.706;2022-08-03T01:00:52;21.70;99.90
25214;DHT22;13160;51.834;4.706;2022-08-03T01:03:20;21.70;99.90
25214;DHT22;13160;51.834;4.706;2022-08-03T01:05:53;21.60;99.90
25214;DHT22;13160;51.834;4.706;2022-08-03T01:08:30;21.60;99.90
25214;DHT22;13160;51.834;4.706;2022-08-03T01:11:09;21.60;99.90
25214;DHT22;13160;51.834;4.706;2022-08-03T01:13:48;21.60;99.90
25214;DHT22;13160;51.834;4.706;2022-08-03T01:16:47;21.60;99.90
25214;DHT22;13160;51.834;4.706;2022-08-03T01:19:35;21.50;99.90
25214;DHT22;13160;51.834;4.706;2022-08-03T01:22:22;21.50;99.90
25214;DHT22;13160;51.834;4.706;2022-08-03T01:25:15;21.50;99.90
25214;DHT22;13160;51.834;4.706;2022-08-03T01:28:06;21.50;99.90
25214;DHT22;13160;51.834;4.706;2022-08-03T01:30:47;21.50;99.90
25214;DHT22;13160;51.834;4.706;2022-08-03T01:33:19;21.50;99.90
25214;DHT22;13160;51.834;4.706;2022-08-03T01:35:53;21.50;99.90
25214;DHT22;13160;51.834;4.706;2022-08-03T01:38:28;21.40;99.90
25214;DHT22;13160;51.834;4.706;2022-08-03T01:41:03;21.40;99.90
25214;DHT22;13160;51.834;4.706;2022-08-03T01:43:35;21.40;99.90
25214;DHT22;13160;51.834;4.706;2022-08-03T01:46:27;21.40;99.90
25214;DHT22;13160;51.834;4.706;2022-08-03T01:48:57;21.40;99.90
25214;DHT22;13160;51.834;4.706;2022-08-03T01:51:26;21.40;99.90
25214;DHT22;13160;51.834;4.706;2022-08-03T01:54:16;21.40;99.90
25214;DHT22;13160;51.834;4.706;2022-08-03T01:56:46;21.40;99.90
25214;DHT22;13160;51.834;4.706;2022-08-03T01:59:18;21.40;99.90
25214;DHT22;13160;51.834;4.706;2022-08-03T02:01:49;21.40;99.90
25214;DHT22;13160;51.834;4.706;2022-08-03T02:04:38;21.40;99.90
25214;DHT22;13160;51.834;4.706;2022-08-03T02:07:08;21.30;99.90
25214;DHT22;13160;51.834;4.706;2022-08-03T02:09:38;21.30;99.90
25214;DHT22;13160;51.834;4.706;2022-08-03T02:12:08;21.30;99.90
25214;DHT22;13160;51.834;4.706;2022-08-03T02:14:38;21.30;99.90
25214;DHT22;13160;51.834;4.706;2022-08-03T02:17:09;21.30;99.90
25214;DHT22;13160;51.834;4.706;2022-08-03T02:19:40;21.30;99.90
25214;DHT22;13160;51.834;4.706;2022-08-03T02:22:11;21.20;99.90
25214;DHT22;13160;51.834;4.706;2022-08-03T02:24:40;21.30;99.90
25214;DHT22;13160;51.834;4.706;2022-08-03T02:27:19;21.20;99.90
25214;DHT22;13160;51.834;4.706;2022-08-03T02:29:52;21.20;99.90
25214;DHT22;13160;51.834;4.706;2022-08-03T02:32:29;21.20;99.90
25214;DHT22;13160;51.834;4.706;2022-08-03T02:34:59;21.20;99.90
25214;DHT22;13160;51.834;4.706;2022-08-03T02:37:35;21.20;99.90
25214;DHT22;13160;51.834;4.706;2022-08-03T02:40:17;21.20;99.90
25214;DHT22;13160;51.834;4.706;2022-08-03T02:42:48;21.10;99.90
25214;DHT22;13160;51.834;4.706;2022-08-03T02:45:19;21.10;99.90
25214;DHT22;13160;51.834;4.706;2022-08-03T02:47:51;21.10;99.90
25214;DHT22;13160;51.834;4.706;2022-08-03T02:50:21;21.10;99.90
25214;DHT22;13160;51.834;4.706;2022-08-03T02:52:51;21.00;99.90
25214;DHT22;13160;51.834;4.706;2022-08-03T02:55:21;21.00;99.90
25214;DHT22;13160;51.834;4.706;2022-08-03T02:57:50;21.00;99.90
25214;DHT22;13160;51.834;4.706;2022-08-03T03:00:19;21.00;99.90
25214;DHT22;13160;51.834;4.706;2022-08-03T03:02:57;21.00;99.90
25214;DHT22;13160;51.834;4.706;2022-08-03T03:05:27;21.00;99.90
25214;DHT22;13160;51.834;4.706;2022-08-03T03:08:17;21.00;99.90
25214;DHT22;13160;51.834;4.706;2022-08-03T03:10:55;21.00;99.90
25214;DHT22;13160;51.834;4.706;2022-08-03T03:13:24;21.00;99.90
25214;DHT22;13160;51.834;4.706;2022-08-03T03:15:55;20.90;99.90
25214;DHT22;13160;51.834;4.706;2022-08-03T03:18:30;20.90;99.90
25214;DHT22;13160;51.834;4.706;2022-08-03T03:20:59;20.90;99.90
25214;DHT22;13160;51.834;4.706;2022-08-03T03:23:30;20.90;99.90
25214;DHT22;13160;51.834;4.706;2022-08-03T03:26:00;20.90;99.90
25214;DHT22;13160;51.834;4.706;2022-08-03T03:28:29;20.90;99.90
25214;DHT22;13160;51.834;4.706;2022-08-03T03:30:59;20.90;99.90
25214;DHT22;13160;51.834;4.706;2022-08-03T03:33:29;20.80;99.90
25214;DHT22;13160;51.834;4.706;2022-08-03T03:35:57;20.80;99.90
25214;DHT22;13160;51.834;4.706;2022-08-03T03:38:26;20.80;99.90
25214;DHT22;13160;51.834;4.706;2022-08-03T03:40:54;20.80;99.90
25214;DHT22;13160;51.834;4.706;2022-08-03T03:43:23;20.80;99.90
25214;DHT22;13160;51.834;4.706;2022-08-03T03:45:52;20.80;99.90
25214;DHT22;13160;51.834;4.706;2022-08-03T03:48:21;20.70;99.90
25214;DHT22;13160;51.834;4.706;2022-08-03T03:50:52;20.70;99.90
25214;DHT22;13160;51.834;4.706;2022-08-03T03:53:23;20.70;99.90
25214;DHT22;13160;51.834;4.706;2022-08-03T03:55:52;20.70;99.90
25214;DHT22;13160;51.834;4.706;2022-08-03T03:58:29;20.70;99.90
25214;DHT22;13160;51.834;4.706;2022-08-03T04:00:58;20.60;99.90
25214;DHT22;13160;51.834;4.706;2022-08-03T04:03:27;20.70;99.90
25214;DHT22;13160;51.834;4.706;2022-08-03T04:05:57;20.60;99.90
25214;DHT22;13160;51.834;4.706;2022-08-03T04:08:43;20.60;99.90
25214;DHT22;13160;51.834;4.706;2022-08-03T04:11:35;20.60;99.90
25214;DHT22;13160;51.834;4.706;2022-08-03T04:14:10;20.60;99.90
25214;DHT22;13160;51.834;4.706;2022-08-03T04:16:43;20.60;99.90
25214;DHT22;13160;51.834;4.706;2022-08-03T04:19:16;20.60;99.90
25214;DHT22;13160;51.834;4.706;2022-08-03T04:21:53;20.60;99.90
25214;DHT22;13160;51.834;4.706;2022-08-03T04:24:38;20.60;99.90
25214;DHT22;13160;51.834;4.706;2022-08-03T04:27:08;20.50;99.90
25214;DHT22;13160;51.834;4.706;2022-08-03T04:29:41;20.50;99.90
25214;DHT22;13160;51.834;4.706;2022-08-03T04:32:14;20.50;99.90
25214;DHT22;13160;51.834;4.706;2022-08-03T04:34:44;20.50;99.90
25214;DHT22;13160;51.834;4.706;2022-08-03T04:37:20;20.50;99.90
25214;DHT22;13160;51.834;4.706;2022-08-03T04:39:56;20.50;99.90
25214;DHT22;13160;51.834;4.706;2022-08-03T04:42:26;20.50;99.90
25214;DHT22;13160;51.834;4.706;2022-08-03T04:44:55;20.50;99.90
25214;DHT22;13160;51.834;4.706;2022-08-03T04:47:28;20.50;99.90
25214;DHT22;13160;51.834;4.706;2022-08-03T04:49:59;20.50;99.90
25214;DHT22;13160;51.834;4.706;2022-08-03T04:52:30;20.50;99.90
25214;DHT22;13160;51.834;4.706;2022-08-03T04:54:58;20.50;99.90
25214;DHT22;13160;51.834;4.706;2022-08-03T04:57:27;20.50;99.90
25214;DHT22;13160;51.834;4.706;2022-08-03T04:59:55;20.50;99.90
25214;DHT22;13160;51.834;4.706;2022-08-03T05:02:29;20.50;99.90
25214;DHT22;13160;51.834;4.706;2022-08-03T05:04:58;20.40;99.90
25214;DHT22;13160;51.834;4.706;2022-08-03T05:07:26;20.40;99.90
25214;DHT22;13160;51.834;4.706;2022-08-03T05:10:03;20.50;99.90
25214;DHT22;13160;51.834;4.706;2022-08-03T05:12:42;20.50;99.90
25214;DHT22;13160;51.834;4.706;2022-08-03T05:15:11;20.50;99.90
25214;DHT22;13160;51.834;4.706;2022-08-03T05:17:39;20.50;99.90
25214;DHT22;13160;51.834;4.706;2022-08-03T05:20:09;20.50;99.90
25214;DHT22;13160;51.834;4.706;2022-08-03T05:22:39;20.50;99.90
25214;DHT22;13160;51.834;4.706;2022-08-03T05:25:08;20.50;99.90
25214;DHT22;13160;51.834;4.706;2022-08-03T05:27:46;20.50;99.90
25214;DHT22;13160;51.834;4.706;2022-08-03T05:30:14;20.50;99.90
25214;DHT22;13160;51.834;4.706;2022-08-03T05:33:00;20.60;99.90
25214;DHT22;13160;51.834;4.706;2022-08-03T05:35:30;20.60;99.90
25214;DHT22;13160;51.834;4.706;2022-08-03T05:38:22;20.60;99.90
25214;DHT22;13160;51.834;4.706;2022-08-03T05:40:55;20.60;99.90
25214;DHT22;13160;51.834;4.706;2022-08-03T05:43:43;20.60;99.90
25214;DHT22;13160;51.834;4.706;2022-08-03T05:46:12;20.60;99.90
25214;DHT22;13160;51.834;4.706;2022-08-03T05:48:41;20.70;99.90
25214;DHT22;13160;51.834;4.706;2022-08-03T05:51:09;20.70;99.90
25214;DHT22;13160;51.834;4.706;2022-08-03T05:53:40;20.70;99.90
25214;DHT22;13160;51.834;4.706;2022-08-03T05:56:08;20.70;99.90
25214;DHT22;13160;51.834;4.706;2022-08-03T05:58:41;20.70;99.90
25214;DHT22;13160;51.834;4.706;2022-08-03T06:01:10;20.70;99.90
25214;DHT22;13160;51.834;4.706;2022-08-03T06:03:38;20.70;99.90
25214;DHT22;13160;51.834;4.706;2022-08-03T06:06:07;20.80;99.90
25214;DHT22;13160;51.834;4.706;2022-08-03T06:08:35;20.80;99.90
25214;DHT22;13160;51.834;4.706;2022-08-03T06:11:05;20.80;99.90
25214;DHT22;13160;51.834;4.706;2022-08-03T06:13:34;20.90;99.90
25214;DHT22;13160;51.834;4.706;2022-08-03T06:16:03;20.90;99.90
25214;DHT22;13160;51.834;4.706;2022-08-03T06:18:32;20.90;99.90
25214;DHT22;13160;51.834;4.706;2022-08-03T06:21:00;21.00;99.90
25214;DHT22;13160;51.834;4.706;2022-08-03T06:23:42;21.00;99.90
25214;DHT22;13160;51.834;4.706;2022-08-03T06:26:21;21.10;99.90
25214;DHT22;13160;51.834;4.706;2022-08-03T06:28:50;21.10;99.90
25214;DHT22;13160;51.834;4.706;2022-08-03T06:31:20;21.20;99.90
25214;DHT22;13160;51.834;4.706;2022-08-03T06:34:02;21.30;99.90
25214;DHT22;13160;51.834;4.706;2022-08-03T06:36:51;21.30;99.90
25214;DHT22;13160;51.834;4.706;2022-08-03T06:39:27;21.40;99.90
25214;DHT22;13160;51.834;4.706;2022-08-03T06:41:57;21.40;99.90
25214;DHT22;13160;51.834;4.706;2022-08-03T06:44:25;21.50;99.90
25214;DHT22;13160;51.834;4.706;2022-08-03T06:46:54;21.50;99.90
25214;DHT22;13160;51.834;4.706;2022-08-03T06:49:22;21.60;99.90
25214;DHT22;13160;51.834;4.706;2022-08-03T06:51:51;21.70;99.90
25214;DHT22;13160;51.834;4.706;2022-08-03T06:54:32;21.90;99.90
25214;DHT22;13160;51.834;4.706;2022-08-03T06:57:03;22.10;99.90
25214;DHT22;13160;51.834;4.706;2022-08-03T06:59:33;22.50;99.90
25214;DHT22;13160;51.834;4.706;2022-08-03T07:02:22;22.80;99.90
25214;DHT22;13160;51.834;4.706;2022-08-03T07:04:54;23.40;99.90
25214;DHT22;13160;51.834;4.706;2022-08-03T07:07:23;24.00;99.90
25214;DHT22;13160;51.834;4.706;2022-08-03T07:09:51;24.60;99.90
25214;DHT22;13160;51.834;4.706;2022-08-03T07:12:26;25.10;99.90
25214;DHT22;13160;51.834;4.706;2022-08-03T07:14:56;25.50;99.60
25214;DHT22;13160;51.834;4.706;2022-08-03T07:17:30;25.90;98.80
25214;DHT22;13160;51.834;4.706;2022-08-03T07:20:00;26.40;97.80
25214;DHT22;13160;51.834;4.706;2022-08-03T07:22:29;26.60;97.00
25214;DHT22;13160;51.834;4.706;2022-08-03T07:24:58;27.00;96.20
25214;DHT22;13160;51.834;4.706;2022-08-03T07:27:28;27.30;95.50
25214;DHT22;13160;51.834;4.706;2022-08-03T07:29:57;27.70;94.80
25214;DHT22;13160;51.834;4.706;2022-08-03T07:32:26;28.20;93.80
25214;DHT22;13160;51.834;4.706;2022-08-03T07:34:57;28.50;93.10
25214;DHT22;13160;51.834;4.706;2022-08-03T07:37:28;28.80;92.20
25214;DHT22;13160;51.834;4.706;2022-08-03T07:39:57;29.20;91.50
25214;DHT22;13160;51.834;4.706;2022-08-03T07:42:28;29.50;90.60
25214;DHT22;13160;51.834;4.706;2022-08-03T07:44:57;29.80;89.80
25214;DHT22;13160;51.834;4.706;2022-08-03T07:47:27;30.00;88.40
25214;DHT22;13160;51.834;4.706;2022-08-03T07:50:00;30.00;87.10
25214;DHT22;13160;51.834;4.706;2022-08-03T07:52:29;30.00;86.60
25214;DHT22;13160;51.834;4.706;2022-08-03T07:55:18;30.10;85.90
25214;DHT22;13160;51.834;4.706;2022-08-03T07:58:01;30.30;85.00
25214;DHT22;13160;51.834;4.706;2022-08-03T08:00:31;30.40;84.50
25214;DHT22;13160;51.834;4.706;2022-08-03T08:03:00;30.60;83.60
25214;DHT22;13160;51.834;4.706;2022-08-03T08:05:29;30.70;82.70
25214;DHT22;13160;51.834;4.706;2022-08-03T08:08:02;30.70;81.90
25214;DHT22;13160;51.834;4.706;2022-08-03T08:10:31;30.80;82.00
25214;DHT22;13160;51.834;4.706;2022-08-03T08:13:01;31.00;81.10
25214;DHT22;13160;51.834;4.706;2022-08-03T08:15:30;30.90;80.50
25214;DHT22;13160;51.834;4.706;2022-08-03T08:17:59;30.80;79.80
25214;DHT22;13160;51.834;4.706;2022-08-03T08:20:30;30.70;79.80
25214;DHT22;13160;51.834;4.706;2022-08-03T08:23:05;30.80;79.70
25214;DHT22;13160;51.834;4.706;2022-08-03T08:25:56;30.80;79.60
25214;DHT22;13160;51.834;4.706;2022-08-03T08:28:26;30.80;79.60
25214;DHT22;13160;51.834;4.706;2022-08-03T08:30:59;30.90;78.70
25214;DHT22;13160;51.834;4.706;2022-08-03T08:33:28;30.90;78.60
25214;DHT22;13160;51.834;4.706;2022-08-03T08:36:16;30.90;78.50
25214;DHT22;13160;51.834;4.706;2022-08-03T08:38:45;30.80;78.60
25214;DHT22;13160;51.834;4.706;2022-08-03T08:41:14;30.80;78.60
25214;DHT22;13160;51.834;4.706;2022-08-03T08:43:43;30.90;78.10
25214;DHT22;13160;51.834;4.706;2022-08-03T08:46:13;30.80;79.00
25214;DHT22;13160;51.834;4.706;2022-08-03T08:48:50;30.80;77.90
25214;DHT22;13160;51.834;4.706;2022-08-03T08:51:21;30.80;77.80
25214;DHT22;13160;51.834;4.706;2022-08-03T08:54:17;30.80;77.70
25214;DHT22;13160;51.834;4.706;2022-08-03T08:56:48;30.70;77.80
25214;DHT22;13160;51.834;4.706;2022-08-03T08:59:19;30.70;78.80
25214;DHT22;13160;51.834;4.706;2022-08-03T09:01:48;30.70;77.60
25214;DHT22;13160;51.834;4.706;2022-08-03T09:04:17;30.60;77.50
25214;DHT22;13160;51.834;4.706;2022-08-03T09:06:45;30.60;77.10
25214;DHT22;13160;51.834;4.706;2022-08-03T09:09:34;30.50;77.30
25214;DHT22;13160;51.834;4.706;2022-08-03T09:12:22;30.40;77.60
25214;DHT22;13160;51.834;4.706;2022-08-03T09:15:22;30.40;77.90
25214;DHT22;13160;51.834;4.706;2022-08-03T09:17:53;30.50;77.70
25214;DHT22;13160;51.834;4.706;2022-08-03T09:20:24;30.40;78.20
25214;DHT22;13160;51.834;4.706;2022-08-03T09:22:55;30.40;77.90
25214;DHT22;13160;51.834;4.706;2022-08-03T09:25:27;30.30;77.80
25214;DHT22;13160;51.834;4.706;2022-08-03T09:28:07;30.30;78.00
25214;DHT22;13160;51.834;4.706;2022-08-03T09:30:41;30.20;77.60
25214;DHT22;13160;51.834;4.706;2022-08-03T09:33:12;30.10;78.20
25214;DHT22;13160;51.834;4.706;2022-08-03T09:35:43;30.10;78.70
25214;DHT22;13160;51.834;4.706;2022-08-03T09:38:24;29.90;78.10
25214;DHT22;13160;51.834;4.706;2022-08-03T09:40:53;29.80;78.20
25214;DHT22;13160;51.834;4.706;2022-08-03T09:43:26;29.70;78.60
25214;DHT22;13160;51.834;4.706;2022-08-03T09:46:03;29.70;78.80
25214;DHT22;13160;51.834;4.706;2022-08-03T09:48:33;29.60;78.80
25214;DHT22;13160;51.834;4.706;2022-08-03T09:51:03;29.60;78.20
25214;DHT22;13160;51.834;4.706;2022-08-03T09:53:53;29.60;78.50
25214;DHT22;13160;51.834;4.706;2022-08-03T09:56:41;29.50;78.00
25214;DHT22;13160;51.834;4.706;2022-08-03T09:59:10;29.60;77.50
25214;DHT22;13160;51.834;4.706;2022-08-03T10:01:41;29.50;77.60
25214;DHT22;13160;51.834;4.706;2022-08-03T10:04:14;29.50;77.00
25214;DHT22;13160;51.834;4.706;2022-08-03T10:06:44;29.50;77.20
25214;DHT22;13160;51.834;4.706;2022-08-03T10:09:14;29.50;77.40
25214;DHT22;13160;51.834;4.706;2022-08-03T10:11:43;29.60;77.20
25214;DHT22;13160;51.834;4.706;2022-08-03T10:14:13;29.60;76.50
25214;DHT22;13160;51.834;4.706;2022-08-03T10:16:47;29.60;77.10
25214;DHT22;13160;51.834;4.706;2022-08-03T10:19:16;29.60;77.40
25214;DHT22;13160;51.834;4.706;2022-08-03T10:21:48;29.70;77.30
25214;DHT22;13160;51.834;4.706;2022-08-03T10:24:23;29.80;77.60
25214;DHT22;13160;51.834;4.706;2022-08-03T10:26:59;29.80;76.50
25214;DHT22;13160;51.834;4.706;2022-08-03T10:29:34;29.90;76.30
25214;DHT22;13160;51.834;4.706;2022-08-03T10:32:11;29.90;75.90
25214;DHT22;13160;51.834;4.706;2022-08-03T10:34:44;30.00;75.50
25214;DHT22;13160;51.834;4.706;2022-08-03T10:37:15;30.00;75.40
25214;DHT22;13160;51.834;4.706;2022-08-03T10:39:46;30.10;75.10
25214;DHT22;13160;51.834;4.706;2022-08-03T10:42:23;30.20;75.00
25214;DHT22;13160;51.834;4.706;2022-08-03T10:45:02;30.20;74.90
25214;DHT22;13160;51.834;4.706;2022-08-03T10:47:34;30.30;74.80
25214;DHT22;13160;51.834;4.706;2022-08-03T10:50:04;30.40;74.10
25214;DHT22;13160;51.834;4.706;2022-08-03T10:52:33;30.40;73.20
25214;DHT22;13160;51.834;4.706;2022-08-03T10:55:28;30.50;73.00
25214;DHT22;13160;51.834;4.706;2022-08-03T10:58:15;30.60;72.80
25214;DHT22;13160;51.834;4.706;2022-08-03T11:01:52;30.60;72.30
25214;DHT22;13160;51.834;4.706;2022-08-03T11:04:28;30.70;72.40
25214;DHT22;13160;51.834;4.706;2022-08-03T11:07:17;30.80;72.40
25214;DHT22;13160;51.834;4.706;2022-08-03T11:09:49;30.90;71.50
25214;DHT22;13160;51.834;4.706;2022-08-03T11:12:23;30.90;69.80
25214;DHT22;13160;51.834;4.706;2022-08-03T11:14:59;31.00;68.90
25214;DHT22;13160;51.834;4.706;2022-08-03T11:17:29;31.10;68.80
25214;DHT22;13160;51.834;4.706;2022-08-03T11:20:00;31.20;68.10
25214;DHT22;13160;51.834;4.706;2022-08-03T11:22:48;31.30;67.30
25214;DHT22;13160;51.834;4.706;2022-08-03T11:25:20;31.40;67.40
25214;DHT22;13160;51.834;4.706;2022-08-03T11:28:27;31.40;67.30
25214;DHT22;13160;51.834;4.706;2022-08-03T11:30:57;31.50;67.80
25214;DHT22;13160;51.834;4.706;2022-08-03T11:34:16;31.60;67.40
25214;DHT22;13160;51.834;4.706;2022-08-03T11:37:20;31.60;67.50
25214;DHT22;13160;51.834;4.706;2022-08-03T11:39:57;31.80;66.60
25214;DHT22;13160;51.834;4.706;2022-08-03T11:42:38;31.80;66.80
25214;DHT22;13160;51.834;4.706;2022-08-03T11:45:14;31.90;66.30
25214;DHT22;13160;51.834;4.706;2022-08-03T11:47:43;31.90;66.00
25214;DHT22;13160;51.834;4.706;2022-08-03T11:50:18;32.00;64.80
25214;DHT22;13160;51.834;4.706;2022-08-03T11:52:48;32.00;64.50
25214;DHT22;13160;51.834;4.706;2022-08-03T11:55:19;32.00;64.00
25214;DHT22;13160;51.834;4.706;2022-08-03T11:57:48;31.90;64.20
25214;DHT22;13160;51.834;4.706;2022-08-03T12:00:36;31.90;64.40
25214;DHT22;13160;51.834;4.706;2022-08-03T12:03:07;32.00;64.40
25214;DHT22;13160;51.834;4.706;2022-08-03T12:05:40;32.00;64.40
25214;DHT22;13160;51.834;4.706;2022-08-03T12:08:30;32.00;64.70
25214;DHT22;13160;51.834;4.706;2022-08-03T12:11:01;32.10;64.80
25214;DHT22;13160;51.834;4.706;2022-08-03T12:13:37;32.10;64.70
25214;DHT22;13160;51.834;4.706;2022-08-03T12:16:26;32.20;64.40
25214;DHT22;13160;51.834;4.706;2022-08-03T12:18:56;32.20;64.70
25214;DHT22;13160;51.834;4.706;2022-08-03T12:21:25;32.30;64.20
25214;DHT22;13160;51.834;4.706;2022-08-03T12:24:00;32.30;64.30
25214;DHT22;13160;51.834;4.706;2022-08-03T12:26:41;32.40;64.50
25214;DHT22;13160;51.834;4.706;2022-08-03T12:29:25;32.40;63.90
25214;DHT22;13160;51.834;4.706;2022-08-03T12:31:54;32.40;63.80
25214;DHT22;13160;51.834;4.706;2022-08-03T12:34:23;32.40;63.80
25214;DHT22;13160;51.834;4.706;2022-08-03T12:36:56;32.40;63.60
25214;DHT22;13160;51.834;4.706;2022-08-03T12:39:27;32.40;63.20
25214;DHT22;13160;51.834;4.706;2022-08-03T12:41:57;32.40;63.40
25214;DHT22;13160;51.834;4.706;2022-08-03T12:44:29;32.50;63.50
25214;DHT22;13160;51.834;4.706;2022-08-03T12:46:59;32.60;63.60
25214;DHT22;13160;51.834;4.706;2022-08-03T12:49:28;32.60;63.10
25214;DHT22;13160;51.834;4.706;2022-08-03T12:51:57;32.70;62.80
25214;DHT22;13160;51.834;4.706;2022-08-03T12:54:34;32.80;62.30
25214;DHT22;13160;51.834;4.706;2022-08-03T12:57:03;32.80;62.00
25214;DHT22;13160;51.834;4.706;2022-08-03T12:59:34;32.80;62.10
25214;DHT22;13160;51.834;4.706;2022-08-03T13:02:13;32.80;62.20
25214;DHT22;13160;51.834;4.706;2022-08-03T13:04:44;32.80;62.10
25214;DHT22;13160;51.834;4.706;2022-08-03T13:07:14;32.80;63.30
25214;DHT22;13160;51.834;4.706;2022-08-03T13:09:48;32.90;61.60
25214;DHT22;13160;51.834;4.706;2022-08-03T13:12:19;33.00;60.90
25214;DHT22;13160;51.834;4.706;2022-08-03T13:14:51;33.00;60.80
25214;DHT22;13160;51.834;4.706;2022-08-03T13:17:20;33.00;60.20
25214;DHT22;13160;51.834;4.706;2022-08-03T13:19:49;33.10;60.30
25214;DHT22;13160;51.834;4.706;2022-08-03T13:22:19;33.10;59.70
25214;DHT22;13160;51.834;4.706;2022-08-03T13:24:51;33.10;59.70
25214;DHT22;13160;51.834;4.706;2022-08-03T13:27:21;33.00;59.30
25214;DHT22;13160;51.834;4.706;2022-08-03T13:30:10;32.90;59.40
25214;DHT22;13160;51.834;4.706;2022-08-03T13:32:46;32.80;59.60
25214;DHT22;13160;51.834;4.706;2022-08-03T13:35:15;32.90;60.10
25214;DHT22;13160;51.834;4.706;2022-08-03T13:37:43;32.90;60.20
25214;DHT22;13160;51.834;4.706;2022-08-03T13:40:16;32.90;60.00
25214;DHT22;13160;51.834;4.706;2022-08-03T13:42:49;33.00;60.20
25214;DHT22;13160;51.834;4.706;2022-08-03T13:45:18;33.00;60.10
25214;DHT22;13160;51.834;4.706;2022-08-03T13:47:46;33.00;60.40
25214;DHT22;13160;51.834;4.706;2022-08-03T13:50:15;33.00;60.10
25214;DHT22;13160;51.834;4.706;2022-08-03T13:52:43;33.00;60.30
25214;DHT22;13160;51.834;4.706;2022-08-03T13:55:12;33.10;60.70
25214;DHT22;13160;51.834;4.706;2022-08-03T13:57:41;33.00;60.60
25214;DHT22;13160;51.834;4.706;2022-08-03T14:00:30;33.10;60.70
25214;DHT22;13160;51.834;4.706;2022-08-03T14:02:59;33.10;60.80
25214;DHT22;13160;51.834;4.706;2022-08-03T14:05:40;33.10;60.80
25214;DHT22;13160;51.834;4.706;2022-08-03T14:08:09;33.10;60.90
25214;DHT22;13160;51.834;4.706;2022-08-03T14:10:40;33.10;60.80
25214;DHT22;13160;51.834;4.706;2022-08-03T14:13:12;33.10;60.90
25214;DHT22;13160;51.834;4.706;2022-08-03T14:15:44;33.10;61.00
25214;DHT22;13160;51.834;4.706;2022-08-03T14:18:17;33.10;61.20
25214;DHT22;13160;51.834;4.706;2022-08-03T14:21:00;33.10;61.20
25214;DHT22;13160;51.834;4.706;2022-08-03T14:23:34;33.10;61.40
25214;DHT22;13160;51.834;4.706;2022-08-03T14:26:04;33.10;61.30
25214;DHT22;13160;51.834;4.706;2022-08-03T14:28:35;33.10;61.50
25214;DHT22;13160;51.834;4.706;2022-08-03T14:31:04;33.00;61.70
25214;DHT22;13160;51.834;4.706;2022-08-03T14:33:52;33.00;62.00
25214;DHT22;13160;51.834;4.706;2022-08-03T14:36:20;33.00;61.90
25214;DHT22;13160;51.834;4.706;2022-08-03T14:38:49;32.90;61.60
25214;DHT22;13160;51.834;4.706;2022-08-03T14:41:17;32.90;61.70
25214;DHT22;13160;51.834;4.706;2022-08-03T14:43:47;32.80;61.80
25214;DHT22;13160;51.834;4.706;2022-08-03T14:46:28;32.80;61.80
25214;DHT22;13160;51.834;4.706;2022-08-03T14:48:57;32.80;61.80
25214;DHT22;13160;51.834;4.706;2022-08-03T14:51:46;32.70;62.20
25214;DHT22;13160;51.834;4.706;2022-08-03T14:54:19;32.70;62.40
25214;DHT22;13160;51.834;4.706;2022-08-03T14:56:48;32.70;62.70
25214;DHT22;13160;51.834;4.706;2022-08-03T14:59:18;32.60;62.50
25214;DHT22;13160;51.834;4.706;2022-08-03T15:01:46;32.60;62.40
25214;DHT22;13160;51.834;4.706;2022-08-03T15:04:33;32.50;62.20
25214;DHT22;13160;51.834;4.706;2022-08-03T15:07:01;32.50;62.40
25214;DHT22;13160;51.834;4.706;2022-08-03T15:09:30;32.40;62.50
25214;DHT22;13160;51.834;4.706;2022-08-03T15:11:58;32.40;62.70
25214;DHT22;13160;51.834;4.706;2022-08-03T15:14:28;32.40;63.00
25214;DHT22;13160;51.834;4.706;2022-08-03T15:17:00;32.30;62.70
25214;DHT22;13160;51.834;4.706;2022-08-03T15:19:29;32.30;62.90
25214;DHT22;13160;51.834;4.706;2022-08-03T15:22:17;32.30;63.00
25214;DHT22;13160;51.834;4.706;2022-08-03T15:24:51;32.20;63.40
25214;DHT22;13160;51.834;4.706;2022-08-03T15:27:22;32.20;63.70
25214;DHT22;13160;51.834;4.706;2022-08-03T15:29:52;32.20;63.90
25214;DHT22;13160;51.834;4.706;2022-08-03T15:32:35;32.20;64.10
25214;DHT22;13160;51.834;4.706;2022-08-03T15:35:04;32.20;64.10
25214;DHT22;13160;51.834;4.706;2022-08-03T15:37:32;32.10;63.80
25214;DHT22;13160;51.834;4.706;2022-08-03T15:40:01;32.10;64.30
25214;DHT22;13160;51.834;4.706;2022-08-03T15:42:31;32.10;64.20
25214;DHT22;13160;51.834;4.706;2022-08-03T15:45:01;32.10;64.10
25214;DHT22;13160;51.834;4.706;2022-08-03T15:47:30;32.00;65.10
25214;DHT22;13160;51.834;4.706;2022-08-03T15:49:59;32.00;64.20
25214;DHT22;13160;51.834;4.706;2022-08-03T15:52:32;31.90;64.60
25214;DHT22;13160;51.834;4.706;2022-08-03T15:55:00;31.80;64.60
25214;DHT22;13160;51.834;4.706;2022-08-03T15:57:28;31.80;65.10
25214;DHT22;13160;51.834;4.706;2022-08-03T15:59:57;31.70;65.40
25214;DHT22;13160;51.834;4.706;2022-08-03T16:02:27;31.60;65.60
25214;DHT22;13160;51.834;4.706;2022-08-03T16:04:55;31.70;65.80
25214;DHT22;13160;51.834;4.706;2022-08-03T16:07:23;31.70;65.70
25214;DHT22;13160;51.834;4.706;2022-08-03T16:10:06;31.60;65.80